sensor_id;sensor_type;location;lat;lon;timestamp;P1;durP1;ratioP1;P2;durP2;ratioP2
51485;SDS011;37565;51.352;6.412;2022-10-15T00:00:46;0.73;;;0.73;;
51485;SDS011;37565;51.352;6.412;2022-10-15T00:03:14;0.80;;;0.80;;
51485;SDS011;37565;51.352;6.412;2022-10-15T00:05:42;0.93;;;0.88;;
51485;SDS011;37565;51.352;6.412;2022-10-15T00:08:10;0.88;;;0.88;;
51485;SDS011;37565;51.352;6.412;2022-10-15T00:10:39;0.80;;;0.80;;
51485;SDS011;37565;51.352;6.412;2022-10-15T00:13:06;0.88;;;0.88;;
51485;SDS011;37565;51.352;6.412;2022-10-15T00:15:36;0.70;;;0.70;;
51485;SDS011;37565;51.352;6.412;2022-10-15T00:18:04;0.80;;;0.80;;
51485;SDS011;37565;51.352;6.412;2022-10-15T00:20:32;0.80;;;0.80;;
51485;SDS011;37565;51.352;6.412;2022-10-15T00:23:00;0.75;;;0.70;;
51485;SDS011;37565;51.352;6.412;2022-10-15T00:25:28;0.80;;;0.80;;
51485;SDS011;37565;51.352;6.412;2022-10-15T00:27:56;0.80;;;0.80;;
51485;SDS011;37565;51.352;6.412;2022-10-15T00:30:23;1.00;;;1.00;;
51485;SDS011;37565;51.352;6.412;2022-10-15T00:32:53;0.85;;;0.85;;
51485;SDS011;37565;51.352;6.412;2022-10-15T00:35:21;0.68;;;0.68;;
51485;SDS011;37565;51.352;6.412;2022-10-15T00:37:48;0.80;;;0.80;;
51485;SDS011;37565;51.352;6.412;2022-10-15T00:40:16;0.82;;;0.82;;
51485;SDS011;37565;51.352;6.412;2022-10-15T00:42:45;0.82;;;0.82;;
51485;SDS011;37565;51.352;6.412;2022-10-15T00:45:14;0.95;;;0.95;;
51485;SDS011;37565;51.352;6.412;2022-10-15T00:47:43;0.80;;;0.80;;
51485;SDS011;37565;51.352;6.412;2022-10-15T00:50:15;0.90;;;0.90;;
51485;SDS011;37565;51.352;6.412;2022-10-15T00:52:48;0.82;;;0.82;;
51485;SDS011;37565;51.352;6.412;2022-10-15T00:55:26;0.88;;;0.88;;
51485;SDS011;37565;51.352;6.412;2022-10-15T00:57:57;0.77;;;0.77;;
51485;SDS011;37565;51.352;6.412;2022-10-15T01:00:28;0.80;;;0.80;;
51485;SDS011;37565;51.352;6.412;2022-10-15T01:02:56;0.70;;;0.70;;
51485;SDS011;37565;51.352;6.412;2022-10-15T01:05:25;0.73;;;0.73;;
51485;SDS011;37565;51.352;6.412;2022-10-15T01:07:53;0.80;;;0.80;;
51485;SDS011;37565;51.352;6.412;2022-10-15T01:10:21;0.73;;;0.73;;
51485;SDS011;37565;51.352;6.412;2022-10-15T01:12:56;1.25;;;1.05;;
51485;SDS011;37565;51.352;6.412;2022-10-15T01:15:32;0.82;;;0.82;;
51485;SDS011;37565;51.352;6.412;2022-10-15T01:18:06;2.25;;;0.98;;
51485;SDS011;37565;51.352;6.412;2022-10-15T01:20:50;0.95;;;0.95;;
51485;SDS011;37565;51.352;6.412;2022-10-15T01:23:47;1.00;;;1.00;;
51485;SDS011;37565;51.352;6.412;2022-10-15T01:26:42;0.77;;;0.77;;
51485;SDS011;37565;51.352;6.412;2022-10-15T01:29:47;0.88;;;0.88;;
51485;SDS011;37565;51.352;6.412;2022-10-15T01:32:31;0.70;;;0.70;;
51485;SDS011;37565;51.352;6.412;2022-10-15T01:35:03;0.80;;;0.80;;
51485;SDS011;37565;51.352;6.412;2022-10-15T01:37:39;0.93;;;0.93;;
51485;SDS011;37565;51.352;6.412;2022-10-15T01:40:12;1.00;;;0.90;;
51485;SDS011;37565;51.352;6.412;2022-10-15T01:42:45;2.40;;;0.90;;
51485;SDS011;37565;51.352;6.412;2022-10-15T01:45:15;0.93;;;0.88;;
51485;SDS011;37565;51.352;6.412;2022-10-15T01:47:49;0.88;;;0.88;;
51485;SDS011;37565;51.352;6.412;2022-10-15T01:50:19;0.90;;;0.90;;
51485;SDS011;37565;51.352;6.412;2022-10-15T01:52:50;1.20;;;0.80;;
51485;SDS011;37565;51.352;6.412;2022-10-15T01:55:21;1.00;;;1.00;;
51485;SDS011;37565;51.352;6.412;2022-10-15T01:57:51;0.98;;;0.88;;
51485;SDS011;37565;51.352;6.412;2022-10-15T02:00:22;0.85;;;0.75;;
51485;SDS011;37565;51.352;6.412;2022-10-15T02:02:51;0.75;;;0.75;;
51485;SDS011;37565;51.352;6.412;2022-10-15T02:05:21;0.88;;;0.88;;
51485;SDS011;37565;51.352;6.412;2022-10-15T02:07:54;1.08;;;0.98;;
51485;SDS011;37565;51.352;6.412;2022-10-15T02:10:26;0.98;;;0.88;;
51485;SDS011;37565;51.352;6.412;2022-10-15T02:13:01;1.50;;;1.08;;
51485;SDS011;37565;51.352;6.412;2022-10-15T02:15:40;1.10;;;1.00;;
51485;SDS011;37565;51.352;6.412;2022-10-15T02:18:14;0.95;;;0.95;;
51485;SDS011;37565;51.352;6.412;2022-10-15T02:20:46;0.98;;;0.70;;
51485;SDS011;37565;51.352;6.412;2022-10-15T02:23:23;0.95;;;0.88;;
51485;SDS011;37565;51.352;6.412;2022-10-15T02:25:53;0.75;;;0.73;;
51485;SDS011;37565;51.352;6.412;2022-10-15T02:28:23;0.73;;;0.73;;
51485;SDS011;37565;51.352;6.412;2022-10-15T02:30:53;1.08;;;0.90;;
51485;SDS011;37565;51.352;6.412;2022-10-15T02:33:25;0.80;;;0.80;;
51485;SDS011;37565;51.352;6.412;2022-10-15T02:35:55;0.65;;;0.65;;
51485;SDS011;37565;51.352;6.412;2022-10-15T02:38:25;2.53;;;0.98;;
51485;SDS011;37565;51.352;6.412;2022-10-15T02:40:56;1.08;;;0.90;;
51485;SDS011;37565;51.352;6.412;2022-10-15T02:43:25;0.90;;;0.90;;
51485;SDS011;37565;51.352;6.412;2022-10-15T02:45:53;1.30;;;0.80;;
51485;SDS011;37565;51.352;6.412;2022-10-15T02:48:21;0.80;;;0.80;;
51485;SDS011;37565;51.352;6.412;2022-10-15T02:50:50;0.90;;;0.90;;
51485;SDS011;37565;51.352;6.412;2022-10-15T02:53:18;1.40;;;0.90;;
51485;SDS011;37565;51.352;6.412;2022-10-15T02:55:46;0.80;;;0.80;;
51485;SDS011;37565;51.352;6.412;2022-10-15T02:58:14;0.95;;;0.90;;
51485;SDS011;37565;51.352;6.412;2022-10-15T03:00:41;0.88;;;0.88;;
51485;SDS011;37565;51.352;6.412;2022-10-15T03:03:10;0.70;;;0.70;;
51485;SDS011;37565;51.352;6.412;2022-10-15T03:05:38;0.73;;;0.73;;
51485;SDS011;37565;51.352;6.412;2022-10-15T03:08:07;1.20;;;0.93;;
51485;SDS011;37565;51.352;6.412;2022-10-15T03:10:35;0.93;;;0.90;;
51485;SDS011;37565;51.352;6.412;2022-10-15T03:13:03;0.75;;;0.75;;
51485;SDS011;37565;51.352;6.412;2022-10-15T03:15:32;0.95;;;0.95;;
51485;SDS011;37565;51.352;6.412;2022-10-15T03:18:00;1.13;;;1.02;;
51485;SDS011;37565;51.352;6.412;2022-10-15T03:20:28;1.13;;;1.02;;
51485;SDS011;37565;51.352;6.412;2022-10-15T03:22:56;0.90;;;0.90;;
51485;SDS011;37565;51.352;6.412;2022-10-15T03:25:25;1.00;;;0.90;;
51485;SDS011;37565;51.352;6.412;2022-10-15T03:27:53;0.90;;;0.90;;
51485;SDS011;37565;51.352;6.412;2022-10-15T03:30:21;0.90;;;0.90;;
51485;SDS011;37565;51.352;6.412;2022-10-15T03:32:49;0.80;;;0.80;;
51485;SDS011;37565;51.352;6.412;2022-10-15T03:35:17;1.08;;;0.98;;
51485;SDS011;37565;51.352;6.412;2022-10-15T03:37:45;0.90;;;0.90;;
51485;SDS011;37565;51.352;6.412;2022-10-15T03:40:12;1.00;;;0.90;;
51485;SDS011;37565;51.352;6.412;2022-10-15T03:42:42;0.80;;;0.80;;
51485;SDS011;37565;51.352;6.412;2022-10-15T03:45:10;1.10;;;0.93;;
51485;SDS011;37565;51.352;6.412;2022-10-15T03:47:38;0.80;;;0.80;;
51485;SDS011;37565;51.352;6.412;2022-10-15T03:50:06;1.40;;;1.15;;
51485;SDS011;37565;51.352;6.412;2022-10-15T03:52:34;0.93;;;0.93;;
51485;SDS011;37565;51.352;6.412;2022-10-15T03:55:03;1.00;;;0.90;;
51485;SDS011;37565;51.352;6.412;2022-10-15T03:57:32;0.80;;;0.80;;
51485;SDS011;37565;51.352;6.412;2022-10-15T04:00:02;1.20;;;1.08;;
51485;SDS011;37565;51.352;6.412;2022-10-15T04:02:32;0.80;;;0.80;;
51485;SDS011;37565;51.352;6.412;2022-10-15T04:05:00;0.82;;;0.80;;
51485;SDS011;37565;51.352;6.412;2022-10-15T04:07:28;0.70;;;0.70;;
51485;SDS011;37565;51.352;6.412;2022-10-15T04:09:56;0.85;;;0.85;;
51485;SDS011;37565;51.352;6.412;2022-10-15T04:12:24;0.75;;;0.75;;
51485;SDS011;37565;51.352;6.412;2022-10-15T04:14:52;1.38;;;0.93;;
51485;SDS011;37565;51.352;6.412;2022-10-15T04:17:21;0.90;;;0.90;;
51485;SDS011;37565;51.352;6.412;2022-10-15T04:19:49;1.10;;;1.00;;
51485;SDS011;37565;51.352;6.412;2022-10-15T04:22:17;0.80;;;0.80;;
51485;SDS011;37565;51.352;6.412;2022-10-15T04:24:45;1.10;;;1.00;;
51485;SDS011;37565;51.352;6.412;2022-10-15T04:27:13;0.90;;;0.90;;
51485;SDS011;37565;51.352;6.412;2022-10-15T04:29:41;0.80;;;0.80;;
51485;SDS011;37565;51.352;6.412;2022-10-15T04:32:10;0.80;;;0.80;;
51485;SDS011;37565;51.352;6.412;2022-10-15T04:34:41;0.90;;;0.70;;
51485;SDS011;37565;51.352;6.412;2022-10-15T04:37:10;0.95;;;0.90;;
51485;SDS011;37565;51.352;6.412;2022-10-15T04:39:38;1.42;;;0.93;;
51485;SDS011;37565;51.352;6.412;2022-10-15T04:42:06;0.70;;;0.70;;
51485;SDS011;37565;51.352;6.412;2022-10-15T04:44:34;0.80;;;0.80;;
51485;SDS011;37565;51.352;6.412;2022-10-15T04:47:02;0.90;;;0.90;;
51485;SDS011;37565;51.352;6.412;2022-10-15T04:49:30;1.10;;;0.98;;
51485;SDS011;37565;51.352;6.412;2022-10-15T04:51:59;1.30;;;1.20;;
51485;SDS011;37565;51.352;6.412;2022-10-15T04:54:27;1.10;;;1.00;;
51485;SDS011;37565;51.352;6.412;2022-10-15T04:56:55;0.70;;;0.70;;
51485;SDS011;37565;51.352;6.412;2022-10-15T04:59:24;1.30;;;1.20;;
51485;SDS011;37565;51.352;6.412;2022-10-15T05:01:52;1.08;;;0.98;;
51485;SDS011;37565;51.352;6.412;2022-10-15T05:04:20;0.80;;;0.80;;
51485;SDS011;37565;51.352;6.412;2022-10-15T05:06:47;0.70;;;0.68;;
51485;SDS011;37565;51.352;6.412;2022-10-15T05:09:17;1.13;;;0.93;;
51485;SDS011;37565;51.352;6.412;2022-10-15T05:11:45;0.80;;;0.80;;
51485;SDS011;37565;51.352;6.412;2022-10-15T05:14:13;0.90;;;0.90;;
51485;SDS011;37565;51.352;6.412;2022-10-15T05:16:41;1.10;;;0.93;;
51485;SDS011;37565;51.352;6.412;2022-10-15T05:19:10;0.93;;;0.82;;
51485;SDS011;37565;51.352;6.412;2022-10-15T05:21:38;0.80;;;0.80;;
51485;SDS011;37565;51.352;6.412;2022-10-15T05:24:06;0.80;;;0.80;;
51485;SDS011;37565;51.352;6.412;2022-10-15T05:26:35;0.80;;;0.80;;
51485;SDS011;37565;51.352;6.412;2022-10-15T05:29:03;0.88;;;0.80;;
51485;SDS011;37565;51.352;6.412;2022-10-15T05:31:31;1.10;;;1.00;;
51485;SDS011;37565;51.352;6.412;2022-10-15T05:34:04;0.88;;;0.88;;
51485;SDS011;37565;51.352;6.412;2022-10-15T05:36:33;0.70;;;0.70;;
51485;SDS011;37565;51.352;6.412;2022-10-15T05:39:03;0.77;;;0.77;;
51485;SDS011;37565;51.352;6.412;2022-10-15T05:41:32;0.80;;;0.80;;
51485;SDS011;37565;51.352;6.412;2022-10-15T05:44:01;0.82;;;0.82;;
51485;SDS011;37565;51.352;6.412;2022-10-15T05:46:29;0.80;;;0.80;;
51485;SDS011;37565;51.352;6.412;2022-10-15T05:48:57;0.80;;;0.80;;
51485;SDS011;37565;51.352;6.412;2022-10-15T05:51:25;1.00;;;0.90;;
51485;SDS011;37565;51.352;6.412;2022-10-15T05:53:54;0.85;;;0.85;;
51485;SDS011;37565;51.352;6.412;2022-10-15T05:56:24;1.00;;;0.93;;
51485;SDS011;37565;51.352;6.412;2022-10-15T05:58:52;0.80;;;0.80;;
51485;SDS011;37565;51.352;6.412;2022-10-15T06:01:22;1.20;;;1.10;;
51485;SDS011;37565;51.352;6.412;2022-10-15T06:03:50;0.88;;;0.80;;
51485;SDS011;37565;51.352;6.412;2022-10-15T06:06:19;0.70;;;0.70;;
51485;SDS011;37565;51.352;6.412;2022-10-15T06:08:48;1.02;;;0.93;;
51485;SDS011;37565;51.352;6.412;2022-10-15T06:11:17;1.10;;;1.00;;
51485;SDS011;37565;51.352;6.412;2022-10-15T06:13:45;0.93;;;0.93;;
51485;SDS011;37565;51.352;6.412;2022-10-15T06:16:14;0.70;;;0.70;;
51485;SDS011;37565;51.352;6.412;2022-10-15T06:18:51;0.88;;;0.88;;
51485;SDS011;37565;51.352;6.412;2022-10-15T06:21:19;0.93;;;0.93;;
51485;SDS011;37565;51.352;6.412;2022-10-15T06:23:47;0.80;;;0.80;;
51485;SDS011;37565;51.352;6.412;2022-10-15T06:26:15;0.98;;;0.90;;
51485;SDS011;37565;51.352;6.412;2022-10-15T06:28:43;1.60;;;0.90;;
51485;SDS011;37565;51.352;6.412;2022-10-15T06:31:11;0.80;;;0.80;;
51485;SDS011;37565;51.352;6.412;2022-10-15T06:33:39;0.80;;;0.80;;
51485;SDS011;37565;51.352;6.412;2022-10-15T06:36:09;0.77;;;0.73;;
51485;SDS011;37565;51.352;6.412;2022-10-15T06:38:39;0.80;;;0.80;;
51485;SDS011;37565;51.352;6.412;2022-10-15T06:41:09;0.95;;;0.88;;
51485;SDS011;37565;51.352;6.412;2022-10-15T06:43:37;1.00;;;0.90;;
51485;SDS011;37565;51.352;6.412;2022-10-15T06:46:05;1.00;;;0.88;;
51485;SDS011;37565;51.352;6.412;2022-10-15T06:48:33;0.82;;;0.82;;
51485;SDS011;37565;51.352;6.412;2022-10-15T06:51:01;1.23;;;1.00;;
51485;SDS011;37565;51.352;6.412;2022-10-15T06:53:31;0.80;;;0.80;;
51485;SDS011;37565;51.352;6.412;2022-10-15T06:56:00;0.80;;;0.80;;
51485;SDS011;37565;51.352;6.412;2022-10-15T06:58:29;1.20;;;1.10;;
51485;SDS011;37565;51.352;6.412;2022-10-15T07:01:00;0.90;;;0.90;;
51485;SDS011;37565;51.352;6.412;2022-10-15T07:03:28;0.80;;;0.80;;
51485;SDS011;37565;51.352;6.412;2022-10-15T07:08:28;0.80;;;0.80;;
51485;SDS011;37565;51.352;6.412;2022-10-15T07:10:59;0.80;;;0.80;;
51485;SDS011;37565;51.352;6.412;2022-10-15T07:13:28;0.85;;;0.85;;
51485;SDS011;37565;51.352;6.412;2022-10-15T07:15:56;0.75;;;0.75;;
51485;SDS011;37565;51.352;6.412;2022-10-15T07:18:23;0.80;;;0.80;;
51485;SDS011;37565;51.352;6.412;2022-10-15T07:20:51;0.90;;;0.90;;
51485;SDS011;37565;51.352;6.412;2022-10-15T07:23:19;0.90;;;0.80;;
51485;SDS011;37565;51.352;6.412;2022-10-15T07:25:52;0.88;;;0.80;;
51485;SDS011;37565;51.352;6.412;2022-10-15T07:28:22;0.70;;;0.70;;
51485;SDS011;37565;51.352;6.412;2022-10-15T07:30:50;0.77;;;0.77;;
51485;SDS011;37565;51.352;6.412;2022-10-15T07:33:18;0.85;;;0.85;;
51485;SDS011;37565;51.352;6.412;2022-10-15T07:35:46;0.85;;;0.85;;
51485;SDS011;37565;51.352;6.412;2022-10-15T07:38:14;0.93;;;0.90;;
51485;SDS011;37565;51.352;6.412;2022-10-15T07:40:43;0.70;;;0.70;;
51485;SDS011;37565;51.352;6.412;2022-10-15T07:43:11;0.70;;;0.70;;
51485;SDS011;37565;51.352;6.412;2022-10-15T07:45:40;1.58;;;0.98;;
51485;SDS011;37565;51.352;6.412;2022-10-15T07:48:13;0.80;;;0.80;;
51485;SDS011;37565;51.352;6.412;2022-10-15T07:50:41;0.90;;;0.90;;
51485;SDS011;37565;51.352;6.412;2022-10-15T07:53:09;0.98;;;0.90;;
51485;SDS011;37565;51.352;6.412;2022-10-15T07:55:37;1.00;;;0.88;;
51485;SDS011;37565;51.352;6.412;2022-10-15T07:58:05;0.73;;;0.70;;
51485;SDS011;37565;51.352;6.412;2022-10-15T08:00:33;0.90;;;0.90;;
51485;SDS011;37565;51.352;6.412;2022-10-15T08:03:03;0.90;;;0.90;;
51485;SDS011;37565;51.352;6.412;2022-10-15T08:05:30;1.02;;;0.93;;
51485;SDS011;37565;51.352;6.412;2022-10-15T08:07:59;1.10;;;1.00;;
51485;SDS011;37565;51.352;6.412;2022-10-15T08:10:27;0.98;;;0.90;;
51485;SDS011;37565;51.352;6.412;2022-10-15T08:12:55;0.90;;;0.90;;
51485;SDS011;37565;51.352;6.412;2022-10-15T08:15:23;2.10;;;0.90;;
51485;SDS011;37565;51.352;6.412;2022-10-15T08:17:51;0.80;;;0.80;;
51485;SDS011;37565;51.352;6.412;2022-10-15T08:20:20;1.00;;;0.90;;
51485;SDS011;37565;51.352;6.412;2022-10-15T08:22:48;0.80;;;0.80;;
51485;SDS011;37565;51.352;6.412;2022-10-15T08:25:16;1.00;;;1.00;;
51485;SDS011;37565;51.352;6.412;2022-10-15T08:27:44;1.48;;;0.80;;
51485;SDS011;37565;51.352;6.412;2022-10-15T08:30:12;0.95;;;0.95;;
51485;SDS011;37565;51.352;6.412;2022-10-15T08:32:40;1.20;;;1.10;;
51485;SDS011;37565;51.352;6.412;2022-10-15T08:35:08;0.90;;;0.90;;
51485;SDS011;37565;51.352;6.412;2022-10-15T08:37:37;0.80;;;0.80;;
51485;SDS011;37565;51.352;6.412;2022-10-15T08:40:05;0.82;;;0.80;;
51485;SDS011;37565;51.352;6.412;2022-10-15T08:42:36;0.85;;;0.85;;
51485;SDS011;37565;51.352;6.412;2022-10-15T08:45:09;1.08;;;0.98;;
51485;SDS011;37565;51.352;6.412;2022-10-15T08:47:41;1.10;;;1.00;;
51485;SDS011;37565;51.352;6.412;2022-10-15T08:50:16;0.80;;;0.80;;
51485;SDS011;37565;51.352;6.412;2022-10-15T08:52:54;0.90;;;0.90;;
51485;SDS011;37565;51.352;6.412;2022-10-15T08:55:26;0.95;;;0.95;;
51485;SDS011;37565;51.352;6.412;2022-10-15T08:58:01;0.95;;;0.90;;
51485;SDS011;37565;51.352;6.412;2022-10-15T09:00:40;0.82;;;0.75;;
51485;SDS011;37565;51.352;6.412;2022-10-15T09:03:12;0.90;;;0.70;;
51485;SDS011;37565;51.352;6.412;2022-10-15T09:05:51;0.80;;;0.80;;
51485;SDS011;37565;51.352;6.412;2022-10-15T09:08:26;1.17;;;0.98;;
51485;SDS011;37565;51.352;6.412;2022-10-15T09:10:58;0.90;;;0.90;;
51485;SDS011;37565;51.352;6.412;2022-10-15T09:13:32;0.93;;;0.93;;
51485;SDS011;37565;51.352;6.412;2022-10-15T09:16:09;1.10;;;1.00;;
51485;SDS011;37565;51.352;6.412;2022-10-15T09:18:40;0.80;;;0.80;;
51485;SDS011;37565;51.352;6.412;2022-10-15T09:21:10;0.80;;;0.80;;
51485;SDS011;37565;51.352;6.412;2022-10-15T09:23:41;0.90;;;0.90;;
51485;SDS011;37565;51.352;6.412;2022-10-15T09:26:20;0.90;;;0.90;;
51485;SDS011;37565;51.352;6.412;2022-10-15T09:28:55;0.70;;;0.70;;
51485;SDS011;37565;51.352;6.412;2022-10-15T09:31:30;0.90;;;0.90;;
51485;SDS011;37565;51.352;6.412;2022-10-15T09:34:06;0.80;;;0.80;;
51485;SDS011;37565;51.352;6.412;2022-10-15T09:39:24;1.20;;;1.10;;
51485;SDS011;37565;51.352;6.412;2022-10-15T09:42:03;0.82;;;0.82;;
51485;SDS011;37565;51.352;6.412;2022-10-15T09:44:41;0.80;;;0.80;;
51485;SDS011;37565;51.352;6.412;2022-10-15T09:47:15;0.80;;;0.80;;
51485;SDS011;37565;51.352;6.412;2022-10-15T09:49:49;1.02;;;0.93;;
51485;SDS011;37565;51.352;6.412;2022-10-15T09:52:19;0.95;;;0.95;;
51485;SDS011;37565;51.352;6.412;2022-10-15T09:54:57;0.88;;;0.88;;
51485;SDS011;37565;51.352;6.412;2022-10-15T09:57:31;0.98;;;0.93;;
51485;SDS011;37565;51.352;6.412;2022-10-15T10:00:02;0.80;;;0.80;;
51485;SDS011;37565;51.352;6.412;2022-10-15T10:02:33;0.70;;;0.70;;
51485;SDS011;37565;51.352;6.412;2022-10-15T10:05:17;1.00;;;0.90;;
51485;SDS011;37565;51.352;6.412;2022-10-15T10:07:46;0.98;;;0.90;;
51485;SDS011;37565;51.352;6.412;2022-10-15T10:10:22;1.40;;;0.73;;
51485;SDS011;37565;51.352;6.412;2022-10-15T10:12:51;0.73;;;0.73;;
51485;SDS011;37565;51.352;6.412;2022-10-15T10:15:25;0.82;;;0.82;;
51485;SDS011;37565;51.352;6.412;2022-10-15T10:17:58;1.05;;;0.95;;
51485;SDS011;37565;51.352;6.412;2022-10-15T10:20:27;0.90;;;0.70;;
51485;SDS011;37565;51.352;6.412;2022-10-15T10:22:56;0.77;;;0.77;;
51485;SDS011;37565;51.352;6.412;2022-10-15T10:25:34;0.80;;;0.63;;
51485;SDS011;37565;51.352;6.412;2022-10-15T10:28:14;0.60;;;0.60;;
51485;SDS011;37565;51.352;6.412;2022-10-15T10:30:48;0.75;;;0.75;;
51485;SDS011;37565;51.352;6.412;2022-10-15T10:33:21;0.70;;;0.68;;
51485;SDS011;37565;51.352;6.412;2022-10-15T10:35:52;0.60;;;0.60;;
51485;SDS011;37565;51.352;6.412;2022-10-15T10:38:22;1.10;;;1.00;;
51485;SDS011;37565;51.352;6.412;2022-10-15T10:40:54;0.70;;;0.70;;
51485;SDS011;37565;51.352;6.412;2022-10-15T10:43:30;0.80;;;0.80;;
51485;SDS011;37565;51.352;6.412;2022-10-15T10:46:05;0.90;;;0.80;;
51485;SDS011;37565;51.352;6.412;2022-10-15T10:48:46;0.80;;;0.80;;
51485;SDS011;37565;51.352;6.412;2022-10-15T10:51:15;0.63;;;0.63;;
51485;SDS011;37565;51.352;6.412;2022-10-15T10:53:49;0.60;;;0.60;;
51485;SDS011;37565;51.352;6.412;2022-10-15T10:56:21;0.80;;;0.80;;
51485;SDS011;37565;51.352;6.412;2022-10-15T10:58:54;0.70;;;0.70;;
51485;SDS011;37565;51.352;6.412;2022-10-15T11:01:25;0.60;;;0.60;;
51485;SDS011;37565;51.352;6.412;2022-10-15T11:03:54;0.65;;;0.65;;
51485;SDS011;37565;51.352;6.412;2022-10-15T11:06:24;0.80;;;0.80;;
51485;SDS011;37565;51.352;6.412;2022-10-15T11:09:23;1.02;;;0.70;;
51485;SDS011;37565;51.352;6.412;2022-10-15T11:12:07;0.70;;;0.70;;
51485;SDS011;37565;51.352;6.412;2022-10-15T11:14:51;0.80;;;0.80;;
51485;SDS011;37565;51.352;6.412;2022-10-15T11:17:25;0.70;;;0.70;;
51485;SDS011;37565;51.352;6.412;2022-10-15T11:20:02;0.75;;;0.75;;
51485;SDS011;37565;51.352;6.412;2022-10-15T11:23:01;0.70;;;0.70;;
51485;SDS011;37565;51.352;6.412;2022-10-15T11:25:39;0.88;;;0.70;;
51485;SDS011;37565;51.352;6.412;2022-10-15T11:30:48;0.80;;;0.80;;
51485;SDS011;37565;51.352;6.412;2022-10-15T11:33:25;1.30;;;0.80;;
51485;SDS011;37565;51.352;6.412;2022-10-15T11:36:07;0.98;;;0.98;;
51485;SDS011;37565;51.352;6.412;2022-10-15T11:38:49;0.88;;;0.80;;
51485;SDS011;37565;51.352;6.412;2022-10-15T11:41:28;0.60;;;0.60;;
51485;SDS011;37565;51.352;6.412;2022-10-15T11:44:16;0.50;;;0.50;;
51485;SDS011;37565;51.352;6.412;2022-10-15T11:47:07;0.60;;;0.60;;
51485;SDS011;37565;51.352;6.412;2022-10-15T11:49:47;0.90;;;0.70;;
51485;SDS011;37565;51.352;6.412;2022-10-15T11:52:24;0.60;;;0.60;;
51485;SDS011;37565;51.352;6.412;2022-10-15T11:55:07;0.70;;;0.70;;
51485;SDS011;37565;51.352;6.412;2022-10-15T11:57:39;0.55;;;0.55;;
51485;SDS011;37565;51.352;6.412;2022-10-15T12:00:15;0.60;;;0.60;;
51485;SDS011;37565;51.352;6.412;2022-10-15T12:02:55;0.68;;;0.68;;
51485;SDS011;37565;51.352;6.412;2022-10-15T12:05:30;0.80;;;0.80;;
51485;SDS011;37565;51.352;6.412;2022-10-15T12:08:02;0.88;;;0.70;;
51485;SDS011;37565;51.352;6.412;2022-10-15T12:10:35;0.77;;;0.77;;
51485;SDS011;37565;51.352;6.412;2022-10-15T12:13:18;0.55;;;0.55;;
51485;SDS011;37565;51.352;6.412;2022-10-15T12:15:55;0.70;;;0.70;;
51485;SDS011;37565;51.352;6.412;2022-10-15T12:18:31;0.60;;;0.60;;
51485;SDS011;37565;51.352;6.412;2022-10-15T12:23:56;0.70;;;0.70;;
51485;SDS011;37565;51.352;6.412;2022-10-15T12:26:25;0.57;;;0.57;;
51485;SDS011;37565;51.352;6.412;2022-10-15T12:28:58;0.63;;;0.63;;
51485;SDS011;37565;51.352;6.412;2022-10-15T12:31:48;0.60;;;0.60;;
51485;SDS011;37565;51.352;6.412;2022-10-15T12:34:29;0.70;;;0.70;;
51485;SDS011;37565;51.352;6.412;2022-10-15T12:37:03;0.60;;;0.60;;
51485;SDS011;37565;51.352;6.412;2022-10-15T12:39:35;0.82;;;0.82;;
51485;SDS011;37565;51.352;6.412;2022-10-15T12:42:25;0.70;;;0.70;;
51485;SDS011;37565;51.352;6.412;2022-10-15T12:44:55;0.60;;;0.60;;
51485;SDS011;37565;51.352;6.412;2022-10-15T12:50:22;0.60;;;0.60;;
51485;SDS011;37565;51.352;6.412;2022-10-15T12:52:59;0.70;;;0.70;;
51485;SDS011;37565;51.352;6.412;2022-10-15T12:55:29;0.50;;;0.50;;
51485;SDS011;37565;51.352;6.412;2022-10-15T12:58:02;0.60;;;0.60;;
51485;SDS011;37565;51.352;6.412;2022-10-15T13:00:32;0.60;;;0.60;;
51485;SDS011;37565;51.352;6.412;2022-10-15T13:03:13;0.52;;;0.52;;
51485;SDS011;37565;51.352;6.412;2022-10-15T13:06:11;0.85;;;0.75;;
51485;SDS011;37565;51.352;6.412;2022-10-15T13:09:02;0.65;;;0.63;;
51485;SDS011;37565;51.352;6.412;2022-10-15T13:11:51;0.60;;;0.60;;
51485;SDS011;37565;51.352;6.412;2022-10-15T13:14:25;0.63;;;0.63;;
51485;SDS011;37565;51.352;6.412;2022-10-15T13:16:56;0.80;;;0.80;;
51485;SDS011;37565;51.352;6.412;2022-10-15T13:19:29;0.57;;;0.57;;
51485;SDS011;37565;51.352;6.412;2022-10-15T13:21:59;0.60;;;0.60;;
51485;SDS011;37565;51.352;6.412;2022-10-15T13:24:29;0.50;;;0.50;;
51485;SDS011;37565;51.352;6.412;2022-10-15T13:27:12;0.40;;;0.40;;
51485;SDS011;37565;51.352;6.412;2022-10-15T13:29:51;0.55;;;0.55;;
51485;SDS011;37565;51.352;6.412;2022-10-15T13:32:20;0.70;;;0.70;;
51485;SDS011;37565;51.352;6.412;2022-10-15T13:34:50;0.55;;;0.55;;
51485;SDS011;37565;51.352;6.412;2022-10-15T13:37:19;0.80;;;0.80;;
51485;SDS011;37565;51.352;6.412;2022-10-15T13:39:54;0.70;;;0.70;;
51485;SDS011;37565;51.352;6.412;2022-10-15T13:42:22;0.60;;;0.60;;
51485;SDS011;37565;51.352;6.412;2022-10-15T13:44:55;0.60;;;0.60;;
51485;SDS011;37565;51.352;6.412;2022-10-15T13:47:27;0.70;;;0.70;;
51485;SDS011;37565;51.352;6.412;2022-10-15T13:52:50;0.70;;;0.60;;
51485;SDS011;37565;51.352;6.412;2022-10-15T13:55:21;0.47;;;0.47;;
51485;SDS011;37565;51.352;6.412;2022-10-15T13:57:52;0.50;;;0.50;;
51485;SDS011;37565;51.352;6.412;2022-10-15T14:00:26;0.57;;;0.57;;
51485;SDS011;37565;51.352;6.412;2022-10-15T14:03:05;0.57;;;0.57;;
51485;SDS011;37565;51.352;6.412;2022-10-15T14:05:35;0.63;;;0.57;;
51485;SDS011;37565;51.352;6.412;2022-10-15T14:08:03;0.50;;;0.50;;
51485;SDS011;37565;51.352;6.412;2022-10-15T14:10:31;0.50;;;0.50;;
51485;SDS011;37565;51.352;6.412;2022-10-15T14:12:59;0.50;;;0.50;;
51485;SDS011;37565;51.352;6.412;2022-10-15T14:15:38;0.50;;;0.50;;
51485;SDS011;37565;51.352;6.412;2022-10-15T14:18:11;0.65;;;0.65;;
51485;SDS011;37565;51.352;6.412;2022-10-15T14:20:43;0.55;;;0.55;;
51485;SDS011;37565;51.352;6.412;2022-10-15T14:23:16;0.60;;;0.60;;
51485;SDS011;37565;51.352;6.412;2022-10-15T14:25:51;0.70;;;0.70;;
51485;SDS011;37565;51.352;6.412;2022-10-15T14:28:21;0.63;;;0.57;;
51485;SDS011;37565;51.352;6.412;2022-10-15T14:30:50;0.90;;;0.90;;
51485;SDS011;37565;51.352;6.412;2022-10-15T14:33:29;0.90;;;0.88;;
51485;SDS011;37565;51.352;6.412;2022-10-15T14:36:04;0.52;;;0.52;;
51485;SDS011;37565;51.352;6.412;2022-10-15T14:38:35;0.60;;;0.60;;
51485;SDS011;37565;51.352;6.412;2022-10-15T14:41:04;0.50;;;0.50;;
51485;SDS011;37565;51.352;6.412;2022-10-15T14:43:44;0.50;;;0.50;;
51485;SDS011;37565;51.352;6.412;2022-10-15T14:46:13;0.47;;;0.47;;
51485;SDS011;37565;51.352;6.412;2022-10-15T14:48:43;0.57;;;0.57;;
51485;SDS011;37565;51.352;6.412;2022-10-15T14:51:16;0.60;;;0.60;;
51485;SDS011;37565;51.352;6.412;2022-10-15T14:53:47;0.65;;;0.47;;
51485;SDS011;37565;51.352;6.412;2022-10-15T14:56:18;0.50;;;0.50;;
51485;SDS011;37565;51.352;6.412;2022-10-15T14:58:48;0.50;;;0.50;;
51485;SDS011;37565;51.352;6.412;2022-10-15T15:01:21;0.60;;;0.60;;
51485;SDS011;37565;51.352;6.412;2022-10-15T15:03:53;0.50;;;0.50;;
51485;SDS011;37565;51.352;6.412;2022-10-15T15:06:23;0.47;;;0.47;;
51485;SDS011;37565;51.352;6.412;2022-10-15T15:08:51;0.55;;;0.55;;
51485;SDS011;37565;51.352;6.412;2022-10-15T15:11:20;0.60;;;0.60;;
51485;SDS011;37565;51.352;6.412;2022-10-15T15:13:50;0.50;;;0.50;;
51485;SDS011;37565;51.352;6.412;2022-10-15T15:16:19;0.60;;;0.60;;
51485;SDS011;37565;51.352;6.412;2022-10-15T15:18:47;0.50;;;0.50;;
51485;SDS011;37565;51.352;6.412;2022-10-15T15:21:15;0.50;;;0.50;;
51485;SDS011;37565;51.352;6.412;2022-10-15T15:23:49;0.40;;;0.40;;
51485;SDS011;37565;51.352;6.412;2022-10-15T15:26:17;0.63;;;0.55;;
51485;SDS011;37565;51.352;6.412;2022-10-15T15:28:45;0.60;;;0.60;;
51485;SDS011;37565;51.352;6.412;2022-10-15T15:31:14;0.55;;;0.55;;